createdAt,value
2022-11-04T00:02:56.533Z,90.71
2022-11-04T00:08:18.276Z,90.66
2022-11-04T00:13:21.687Z,90.82
2022-11-04T00:18:25.000Z,90.77
2022-11-04T00:23:47.357Z,90.69
2022-11-04T00:28:53.331Z,91.03
2022-11-04T00:33:58.853Z,91.19
2022-11-04T00:39:02.213Z,91.29
2022-11-04T00:44:06.029Z,91.36
2022-11-04T00:49:09.438Z,91.55
2022-11-04T00:54:12.853Z,91.88
2022-11-04T00:59:16.880Z,92.15
2022-11-04T01:04:20.091Z,92.23
2022-11-04T01:09:24.321Z,92.19
2022-11-04T01:14:27.733Z,92.40
2022-11-04T01:19:31.049Z,92.55
2022-11-04T01:24:34.355Z,92.49
2022-11-04T01:29:38.077Z,92.48
2022-11-04T01:34:43.504Z,92.43
2022-11-04T01:39:47.155Z,92.70
2022-11-04T01:44:53.950Z,92.51
2022-11-04T01:50:07.294Z,92.69
2022-11-04T01:55:16.544Z,92.81
2022-11-04T02:00:19.955Z,92.75
2022-11-04T02:05:23.675Z,92.84
2022-11-04T02:10:29.405Z,92.44
2022-11-04T02:15:51.290Z,92.35
2022-11-04T02:21:11.908Z,92.62
2022-11-04T02:26:33.958Z,92.76
2022-11-04T02:31:57.851Z,92.87
2022-11-04T02:37:10.479Z,92.75
2022-11-04T02:42:23.007Z,92.80
2022-11-04T02:47:30.347Z,92.44
2022-11-04T02:52:50.280Z,92.46
2022-11-04T02:57:59.052Z,92.33
2022-11-04T03:03:12.811Z,92.36
2022-11-04T03:08:23.388Z,92.46
2022-11-04T03:13:37.553Z,92.39
2022-11-04T03:19:04.213Z,92.49
2022-11-04T03:24:07.931Z,92.25
2022-11-04T03:29:33.360Z,92.57
2022-11-04T03:34:38.309Z,92.34
2022-11-04T03:39:41.928Z,92.34
2022-11-04T03:44:52.818Z,92.33
2022-11-04T03:50:05.553Z,92.13
2022-11-04T03:55:11.416Z,92.09
2022-11-04T04:00:17.143Z,91.95
2022-11-04T04:05:33.584Z,91.93
2022-11-04T04:11:00.000Z,91.87
2022-11-04T04:16:06.031Z,92.03
2022-11-04T04:21:14.257Z,91.97
2022-11-04T04:26:40.198Z,91.78
2022-11-04T04:31:50.371Z,91.73
2022-11-04T04:37:00.543Z,91.83
2022-11-04T04:42:24.128Z,91.45
2022-11-04T04:47:32.354Z,91.50
2022-11-04T04:52:39.861Z,91.44
2022-11-04T04:57:43.275Z,91.32
2022-11-04T05:02:47.104Z,91.12
2022-11-04T05:07:50.409Z,91.28
2022-11-04T05:13:12.460Z,91.18
2022-11-04T05:18:15.770Z,91.01
2022-11-04T05:23:19.287Z,90.94
2022-11-04T05:28:22.598Z,90.80
2022-11-04T05:33:26.015Z,90.77
2022-11-04T05:38:29.322Z,90.91
2022-11-04T05:43:33.761Z,90.95
2022-11-04T05:48:40.506Z,90.89
2022-11-04T05:53:44.783Z,90.65
2022-11-04T05:58:48.110Z,90.62
2022-11-04T06:03:52.940Z,90.58
2022-11-04T06:08:56.767Z,90.45
2022-11-04T06:14:00.379Z,90.56
2022-11-04T06:19:07.749Z,90.41
2022-11-04T06:24:14.280Z,90.06
2022-11-04T06:29:17.897Z,90.16
2022-11-04T06:34:21.510Z,89.91
2022-11-04T06:39:24.822Z,90.05
2022-11-04T06:44:28.236Z,89.90
2022-11-04T06:49:31.554Z,90.06
2022-11-04T06:54:35.061Z,89.92
2022-11-04T06:59:38.484Z,89.82
2022-11-04T07:04:41.888Z,89.65
2022-11-04T07:09:45.300Z,89.33
2022-11-04T07:14:48.818Z,89.20
2022-11-04T07:19:52.124Z,89.14
2022-11-04T07:24:55.643Z,89.04
2022-11-04T07:29:59.055Z,88.83
2022-11-04T07:35:02.568Z,88.72
2022-11-04T07:40:07.201Z,88.83
2022-11-04T07:45:11.447Z,88.46
2022-11-04T07:50:14.848Z,88.57
2022-11-04T07:55:19.090Z,88.43
2022-11-04T08:00:22.606Z,88.17
2022-11-04T08:05:26.122Z,88.19
2022-11-04T08:10:30.252Z,87.98
2022-11-04T08:15:36.125Z,87.90
2022-11-04T08:20:39.436Z,88.08
2022-11-04T08:25:43.358Z,87.92
2022-11-04T08:30:59.236Z,87.80
2022-11-04T08:36:12.814Z,87.71
2022-11-04T08:41:20.055Z,87.62
2022-11-04T08:46:23.431Z,87.65
2022-11-04T08:51:28.593Z,87.63
2022-11-04T08:56:34.965Z,87.52
2022-11-04T09:01:38.866Z,87.51
2022-11-04T09:06:46.244Z,87.48
2022-11-04T09:11:49.609Z,87.26
2022-11-04T09:16:54.365Z,87.13
2022-11-04T09:21:57.769Z,86.80
2022-11-04T09:27:01.178Z,86.92
2022-11-04T09:32:05.003Z,87.09
2022-11-04T09:37:08.416Z,86.90
2022-11-04T09:42:24.222Z,86.61
2022-11-04T09:47:31.113Z,86.49
2022-11-04T09:52:44.664Z,86.58
2022-11-04T09:57:55.711Z,86.08
2022-11-04T10:03:42.179Z,85.94
2022-11-04T10:08:54.706Z,85.58
2022-11-04T10:14:00.886Z,85.45
2022-11-04T10:19:25.700Z,85.49
2022-11-04T10:24:43.578Z,84.79
2022-11-04T10:29:55.316Z,84.56
2022-11-04T10:35:07.479Z,84.34
2022-11-04T10:40:39.054Z,84.00
2022-11-04T10:46:14.825Z,83.60
2022-11-04T10:51:22.338Z,83.33
2022-11-04T10:56:48.120Z,83.10
2022-11-04T11:01:54.738Z,82.90
2022-11-04T11:07:01.674Z,82.64
2022-11-04T11:12:44.056Z,82.10
2022-11-04T11:17:38.895Z,81.55
2022-11-04T11:22:44.768Z,81.73
2022-11-04T11:28:09.539Z,81.37
2022-11-04T11:33:28.255Z,81.05
2022-11-04T11:38:34.534Z,81.00
2022-11-04T11:43:42.869Z,81.03
2022-11-04T11:48:53.257Z,80.59
2022-11-04T11:54:02.697Z,80.21
2022-11-04T12:10:18.575Z,79.31
2022-11-04T12:15:31.610Z,79.18
2022-11-04T12:21:04.920Z,79.02
2022-11-04T12:26:26.058Z,79.00
2022-11-04T12:31:48.203Z,78.56
2022-11-04T12:37:00.322Z,78.55
2022-11-04T12:42:32.467Z,78.25
2022-11-04T12:47:46.776Z,78.07
2022-11-04T12:53:03.808Z,77.48
2022-11-04T12:58:13.056Z,77.20
2022-11-04T13:03:30.418Z,76.80
2022-11-04T13:08:39.546Z,76.22
2022-11-04T13:13:42.853Z,76.04
2022-11-04T13:18:48.214Z,75.74
2022-11-04T13:24:00.741Z,75.57
2022-11-04T13:29:12.754Z,75.61
2022-11-04T13:34:23.042Z,75.40
2022-11-04T13:39:38.218Z,75.20
2022-11-04T13:44:45.545Z,74.86
2022-11-04T13:49:55.701Z,75.10
2022-11-04T13:55:05.884Z,75.17
2022-11-04T14:00:15.222Z,74.87
2022-11-04T14:05:24.468Z,74.78
2022-11-04T14:10:43.451Z,74.50
2022-11-04T14:16:13.995Z,74.85
2022-11-04T14:21:23.752Z,74.65
2022-11-04T14:26:30.965Z,75.03
2022-11-04T14:31:46.253Z,74.77
2022-11-04T14:36:56.950Z,74.78
2022-11-04T14:42:02.517Z,74.65
2022-11-04T14:47:27.017Z,75.26
2022-11-04T14:52:42.401Z,74.68
2022-11-04T14:57:51.567Z,74.84
2022-11-04T15:03:45.548Z,74.91
2022-11-04T15:08:42.105Z,74.70
2022-11-04T15:13:50.163Z,75.20
2022-11-04T15:18:56.407Z,75.20
2022-11-04T15:24:01.872Z,75.19
2022-11-04T15:29:11.698Z,75.27
2022-11-04T15:34:15.567Z,75.64
2022-11-04T15:39:30.739Z,75.42
2022-11-04T15:44:37.201Z,75.69
2022-11-04T15:49:40.538Z,75.88
2022-11-04T15:55:05.586Z,75.86
2022-11-04T16:00:25.251Z,75.90
2022-11-04T16:05:33.579Z,76.01
2022-11-04T16:10:37.885Z,76.31
2022-11-04T16:15:41.020Z,76.38
2022-11-04T16:20:47.231Z,76.27
2022-11-04T16:26:00.765Z,76.66
2022-11-04T16:31:08.399Z,76.81
2022-11-04T16:36:23.611Z,76.81
2022-11-04T16:41:29.524Z,76.74
2022-11-04T16:46:34.471Z,77.00
2022-11-04T16:51:37.785Z,77.30
2022-11-04T16:56:41.093Z,77.13
2022-11-04T17:01:44.612Z,77.25
2022-11-04T17:06:48.328Z,77.49
2022-11-04T17:11:51.638Z,77.47
2022-11-04T17:16:57.424Z,77.71
2022-11-04T17:22:03.278Z,77.86
2022-11-04T17:27:06.898Z,78.00
2022-11-04T17:32:10.418Z,77.99
2022-11-04T17:37:14.339Z,78.25
2022-11-04T17:42:36.595Z,78.28
2022-11-04T17:47:40.005Z,78.41
2022-11-04T17:52:44.340Z,78.68
2022-11-04T17:57:47.651Z,78.63
2022-11-04T18:02:51.361Z,78.80
2022-11-04T18:07:56.645Z,78.77
2022-11-04T18:12:59.940Z,78.96
2022-11-04T18:18:03.475Z,78.90
2022-11-04T18:23:07.022Z,79.09
2022-11-04T18:28:11.206Z,79.10
2022-11-04T18:33:14.518Z,79.32
2022-11-04T18:38:17.840Z,78.99
2022-11-04T18:43:22.876Z,79.29
2022-11-04T18:48:26.288Z,79.31
2022-11-04T18:53:29.815Z,79.47
2022-11-04T18:58:34.997Z,79.42
2022-11-04T19:03:38.579Z,79.48
2022-11-04T19:08:46.485Z,79.67
2022-11-04T19:13:56.021Z,79.50
2022-11-04T19:19:05.179Z,79.46
2022-11-04T19:24:11.503Z,79.63
2022-11-04T19:29:14.893Z,79.68
2022-11-04T19:34:18.409Z,79.80
2022-11-04T19:39:21.820Z,79.88
2022-11-04T19:44:25.348Z,79.91
2022-11-04T19:49:31.759Z,80.03
2022-11-04T19:54:35.854Z,79.89
2022-11-04T19:59:39.035Z,80.01
2022-11-04T20:12:00.764Z,80.24
2022-11-04T20:17:07.743Z,80.18
2022-11-04T20:22:11.057Z,80.28
2022-11-04T20:27:15.597Z,80.45
2022-11-04T20:32:19.416Z,80.45
2022-11-04T20:37:22.729Z,80.47
2022-11-04T20:42:26.141Z,80.69
2022-11-04T20:47:29.863Z,80.75
2022-11-04T20:52:35.394Z,80.86
2022-11-04T20:57:39.045Z,80.81
2022-11-04T21:02:42.401Z,81.07
2022-11-04T21:07:45.871Z,81.20
2022-11-04T21:12:56.085Z,81.35
2022-11-04T21:18:02.941Z,81.40
2022-11-04T21:23:06.860Z,81.52
2022-11-04T21:28:11.664Z,81.48
2022-11-04T21:33:15.842Z,81.51
2022-11-04T21:38:19.254Z,81.75
2022-11-04T21:43:22.814Z,81.78
2022-11-04T21:48:26.182Z,81.97
2022-11-04T21:53:30.951Z,81.94
2022-11-04T21:58:35.159Z,82.11
2022-11-04T22:03:38.673Z,82.10
2022-11-04T22:08:53.969Z,82.27
2022-11-04T22:14:04.060Z,82.55
2022-11-04T22:19:10.635Z,82.54
2022-11-04T22:24:16.788Z,82.61
2022-11-04T22:29:20.111Z,82.78
2022-11-04T22:34:23.639Z,82.97
2022-11-04T22:39:26.947Z,83.11
2022-11-04T22:44:30.248Z,83.28
2022-11-04T22:49:33.660Z,83.32
2022-11-04T22:54:37.176Z,83.46
2022-11-04T22:59:40.593Z,83.45
2022-11-04T23:04:45.438Z,83.39
2022-11-04T23:10:09.123Z,83.44
2022-11-04T23:15:31.276Z,83.65
2022-11-04T23:20:34.587Z,83.87
2022-11-04T23:25:38.104Z,83.93
2022-11-04T23:30:44.847Z,83.97
2022-11-04T23:36:08.074Z,84.07
2022-11-04T23:41:30.329Z,84.14
2022-11-04T23:46:52.581Z,84.13
2022-11-04T23:52:14.942Z,84.00
2022-11-04T23:57:37.809Z,83.99
